createdAt,value
2022-11-04T00:02:00.746Z,9.90
2022-11-04T00:04:29.649Z,9.90
2022-11-04T00:06:58.511Z,10.00
2022-11-04T00:09:32.529Z,9.90
2022-11-04T00:12:19.012Z,9.90
2022-11-04T00:14:46.907Z,9.90
2022-11-04T00:17:20.981Z,10.00
2022-11-04T00:20:12.681Z,10.00
2022-11-04T00:23:00.169Z,10.00
2022-11-04T00:25:48.314Z,10.00
2022-11-04T00:28:37.306Z,10.00
2022-11-04T00:31:26.397Z,10.00
2022-11-04T00:33:56.633Z,10.00
2022-11-04T00:36:28.757Z,10.00
2022-11-04T00:38:56.661Z,10.00
2022-11-04T00:41:28.690Z,10.00
2022-11-04T00:44:02.447Z,10.10
2022-11-04T00:46:32.154Z,10.10
2022-11-04T00:49:00.855Z,10.20
2022-11-04T00:51:29.234Z,10.20
2022-11-04T00:53:59.192Z,10.20
2022-11-04T00:56:27.118Z,10.20
2022-11-04T00:58:55.036Z,10.30
2022-11-04T01:01:23.303Z,10.30
2022-11-04T01:03:54.150Z,10.30
2022-11-04T01:06:24.401Z,10.40
2022-11-04T01:09:03.104Z,10.40
2022-11-04T01:11:32.337Z,10.40
2022-11-04T01:14:00.398Z,10.40
2022-11-04T01:16:29.632Z,10.40
2022-11-04T01:18:58.330Z,10.40
2022-11-04T01:21:26.247Z,10.40
2022-11-04T01:23:54.242Z,10.50
2022-11-04T01:26:25.062Z,10.50
2022-11-04T01:28:55.707Z,10.50
2022-11-04T01:31:26.585Z,10.50
2022-11-04T01:33:55.418Z,10.50
2022-11-04T01:36:24.139Z,10.50
2022-11-04T01:38:52.403Z,10.50
2022-11-04T01:41:32.937Z,10.50
2022-11-04T01:44:03.851Z,10.60
2022-11-04T01:46:48.475Z,10.50
2022-11-04T01:49:22.265Z,10.50
2022-11-04T01:51:55.373Z,10.50
2022-11-04T01:54:23.337Z,10.50
2022-11-04T01:56:52.008Z,10.50
2022-11-04T01:59:28.590Z,10.50
2022-11-04T02:01:57.241Z,10.50
2022-11-04T02:04:28.629Z,10.50
2022-11-04T02:07:07.175Z,10.50
2022-11-04T02:09:40.140Z,10.50
2022-11-04T02:12:26.593Z,10.50
2022-11-04T02:14:56.522Z,10.50
2022-11-04T02:18:00.321Z,10.50
2022-11-04T02:20:31.438Z,10.50
2022-11-04T02:23:23.691Z,10.50
2022-11-04T02:26:15.430Z,10.50
2022-11-04T02:29:02.029Z,10.50
2022-11-04T02:31:44.510Z,10.50
2022-11-04T02:34:18.382Z,10.50
2022-11-04T02:37:21.592Z,10.50
2022-11-04T02:39:56.221Z,10.50
2022-11-04T02:42:30.573Z,10.50
2022-11-04T02:45:26.416Z,10.50
2022-11-04T02:48:04.660Z,10.50
2022-11-04T02:50:52.679Z,10.50
2022-11-04T02:53:24.530Z,10.50
2022-11-04T02:55:56.921Z,10.50
2022-11-04T02:58:39.054Z,10.50
2022-11-04T03:01:14.097Z,10.50
2022-11-04T03:03:49.580Z,10.50
2022-11-04T03:06:23.984Z,10.50
2022-11-04T03:08:55.400Z,10.50
2022-11-04T03:11:24.455Z,10.50
2022-11-04T03:14:02.206Z,10.40
2022-11-04T03:16:48.218Z,10.50
2022-11-04T03:19:41.759Z,10.50
2022-11-04T03:22:16.497Z,10.50
2022-11-04T03:24:47.058Z,10.40
2022-11-04T03:27:26.535Z,10.50
2022-11-04T03:30:05.099Z,10.50
2022-11-04T03:32:42.492Z,10.50
2022-11-04T03:35:11.855Z,10.50
2022-11-04T03:37:39.768Z,10.50
2022-11-04T03:40:08.609Z,10.50
2022-11-04T03:42:49.418Z,10.60
2022-11-04T03:45:17.963Z,10.50
2022-11-04T03:47:45.874Z,10.50
2022-11-04T03:50:28.956Z,10.50
2022-11-04T03:52:57.807Z,10.50
2022-11-04T03:55:42.238Z,10.50
2022-11-04T03:58:17.505Z,10.50
2022-11-04T04:01:10.239Z,10.50
2022-11-04T04:03:46.815Z,10.50
2022-11-04T04:06:21.204Z,10.50
2022-11-04T04:08:54.821Z,10.60
2022-11-04T04:11:59.175Z,10.50
2022-11-04T04:14:59.953Z,10.60
2022-11-04T04:17:38.416Z,10.50
2022-11-04T04:20:16.242Z,10.50
2022-11-04T04:23:30.994Z,10.50
2022-11-04T04:26:23.160Z,10.50
2022-11-04T04:28:52.673Z,10.50
2022-11-04T04:31:43.186Z,10.40
2022-11-04T04:34:15.512Z,10.50
2022-11-04T04:36:57.133Z,10.40
2022-11-04T04:39:48.961Z,10.40
2022-11-04T04:42:35.272Z,10.40
2022-11-04T04:45:06.193Z,10.40
2022-11-04T04:47:54.311Z,10.30
2022-11-04T04:50:23.368Z,10.40
2022-11-04T04:52:54.573Z,10.30
2022-11-04T04:55:22.471Z,10.30
2022-11-04T04:57:51.707Z,10.30
2022-11-04T05:00:21.858Z,10.20
2022-11-04T05:02:50.280Z,10.20
2022-11-04T05:05:18.520Z,10.20
2022-11-04T05:07:46.717Z,10.20
2022-11-04T05:10:17.161Z,10.10
2022-11-04T05:13:04.221Z,10.10
2022-11-04T05:15:32.863Z,10.10
2022-11-04T05:18:02.453Z,10.10
2022-11-04T05:20:31.378Z,10.10
2022-11-04T05:22:59.232Z,10.00
2022-11-04T05:25:27.103Z,10.00
2022-11-04T05:27:54.933Z,10.00
2022-11-04T05:30:22.830Z,10.00
2022-11-04T05:32:50.745Z,10.00
2022-11-04T05:35:18.647Z,10.00
2022-11-04T05:37:46.506Z,10.00
2022-11-04T05:40:14.456Z,10.00
2022-11-04T05:42:45.271Z,10.00
2022-11-04T05:45:16.142Z,9.90
2022-11-04T05:47:47.927Z,9.90
2022-11-04T05:50:15.842Z,9.80
2022-11-04T05:52:43.715Z,9.80
2022-11-04T05:55:11.667Z,9.90
2022-11-04T05:57:39.752Z,9.90
2022-11-04T06:00:08.526Z,9.80
2022-11-04T06:02:36.437Z,9.80
2022-11-04T06:05:04.567Z,9.80
2022-11-04T06:07:32.428Z,9.80
2022-11-04T06:10:01.354Z,9.80
2022-11-04T06:12:29.412Z,9.80
2022-11-04T06:14:57.398Z,9.80
2022-11-04T06:17:25.324Z,9.80
2022-11-04T06:19:53.246Z,9.80
2022-11-04T06:22:21.519Z,9.80
2022-11-04T06:24:49.593Z,9.90
2022-11-04T06:27:17.521Z,9.80
2022-11-04T06:29:45.444Z,9.90
2022-11-04T06:32:15.994Z,9.90
2022-11-04T06:34:44.130Z,9.90
2022-11-04T06:37:12.257Z,9.90
2022-11-04T06:39:40.214Z,10.00
2022-11-04T06:42:08.134Z,9.90
2022-11-04T06:44:36.402Z,9.90
2022-11-04T06:47:04.648Z,9.90
2022-11-04T06:49:32.543Z,9.90
2022-11-04T06:52:01.720Z,9.80
2022-11-04T06:54:29.699Z,9.70
2022-11-04T06:56:57.607Z,9.70
2022-11-04T06:59:25.582Z,9.60
2022-11-04T07:01:53.631Z,9.60
2022-11-04T07:04:21.654Z,9.60
2022-11-04T07:06:49.566Z,9.60
2022-11-04T07:09:18.203Z,9.60
2022-11-04T07:11:47.072Z,9.60
2022-11-04T07:14:15.673Z,9.60
2022-11-04T07:16:43.811Z,9.70
2022-11-04T07:19:11.797Z,9.70
2022-11-04T07:21:40.397Z,9.80
2022-11-04T07:24:08.801Z,9.80
2022-11-04T07:26:36.673Z,9.80
2022-11-04T07:29:04.970Z,9.90
2022-11-04T07:31:32.982Z,9.90
2022-11-04T07:34:01.051Z,9.90
2022-11-04T07:36:28.888Z,9.90
2022-11-04T07:38:58.466Z,9.90
2022-11-04T07:41:26.384Z,9.90
2022-11-04T07:43:56.539Z,9.90
2022-11-04T07:46:24.495Z,9.90
2022-11-04T07:48:52.359Z,10.00
2022-11-04T07:51:25.196Z,10.00
2022-11-04T07:53:55.846Z,10.00
2022-11-04T07:56:25.226Z,10.00
2022-11-04T07:58:53.768Z,10.10
2022-11-04T08:01:24.625Z,10.00
2022-11-04T08:03:53.489Z,10.00
2022-11-04T08:06:22.636Z,10.10
2022-11-04T08:08:55.200Z,10.10
2022-11-04T08:11:26.349Z,10.10
2022-11-04T08:13:54.898Z,10.10
2022-11-04T08:16:34.013Z,10.00
2022-11-04T08:19:03.530Z,10.00
2022-11-04T08:21:33.800Z,10.00
2022-11-04T08:24:04.914Z,10.00
2022-11-04T08:26:34.824Z,9.90
2022-11-04T08:29:03.558Z,9.90
2022-11-04T08:31:32.931Z,9.80
2022-11-04T08:34:01.259Z,9.80
2022-11-04T08:36:32.460Z,9.80
2022-11-04T08:39:05.808Z,9.80
2022-11-04T08:41:42.070Z,9.80
2022-11-04T08:44:10.342Z,9.80
2022-11-04T08:46:40.649Z,9.80
2022-11-04T08:49:10.753Z,9.80
2022-11-04T08:51:45.441Z,9.70
2022-11-04T08:54:13.470Z,9.70
2022-11-04T08:56:42.508Z,9.70
2022-11-04T08:59:11.788Z,9.70
2022-11-04T09:01:40.182Z,9.70
2022-11-04T09:04:09.034Z,9.80
2022-11-04T09:06:40.306Z,9.80
2022-11-04T09:09:10.826Z,9.90
2022-11-04T09:11:41.848Z,9.90
2022-11-04T09:14:10.242Z,9.90
2022-11-04T09:16:39.105Z,9.90
2022-11-04T09:19:07.312Z,10.00
2022-11-04T09:21:35.448Z,9.90
2022-11-04T09:24:03.764Z,10.00
2022-11-04T09:26:33.485Z,10.00
2022-11-04T09:29:02.972Z,10.00
2022-11-04T09:31:31.994Z,9.90
2022-11-04T09:34:00.132Z,9.90
2022-11-04T09:36:29.982Z,9.90
2022-11-04T09:38:58.253Z,9.80
2022-11-04T09:41:53.261Z,9.80
2022-11-04T09:45:15.007Z,9.90
2022-11-04T09:47:34.918Z,10.00
2022-11-04T09:50:04.874Z,10.00
2022-11-04T09:52:42.042Z,10.00
2022-11-04T09:55:25.786Z,9.90
2022-11-04T09:57:57.798Z,9.90
2022-11-04T10:00:30.536Z,9.90
2022-11-04T10:03:30.284Z,10.00
2022-11-04T10:06:11.625Z,10.00
2022-11-04T10:09:08.013Z,10.00
2022-11-04T10:11:44.829Z,10.00
2022-11-04T10:14:23.293Z,10.00
2022-11-04T10:17:14.147Z,10.10
2022-11-04T10:20:28.590Z,10.10
2022-11-04T10:23:47.562Z,10.10
2022-11-04T10:26:38.394Z,10.20
2022-11-04T10:29:12.532Z,10.30
2022-11-04T10:31:44.683Z,10.30
2022-11-04T10:34:24.934Z,10.40
2022-11-04T10:36:53.940Z,10.50
2022-11-04T10:39:30.517Z,10.60
2022-11-04T10:41:59.462Z,10.70
2022-11-04T10:44:30.779Z,10.70
2022-11-04T10:47:20.392Z,10.90
2022-11-04T10:50:45.638Z,11.10
2022-11-04T10:53:22.183Z,11.20
2022-11-04T10:56:13.437Z,11.30
2022-11-04T10:58:46.838Z,11.40
2022-11-04T11:01:30.527Z,11.50
2022-11-04T11:03:59.752Z,11.50
2022-11-04T11:06:36.279Z,11.50
2022-11-04T11:09:16.093Z,11.40
2022-11-04T11:11:52.641Z,11.50
2022-11-04T11:14:29.700Z,11.50
2022-11-04T11:17:18.828Z,11.50
2022-11-04T11:20:01.759Z,11.50
2022-11-04T11:22:43.648Z,11.40
2022-11-04T11:25:22.993Z,11.50
2022-11-04T11:28:12.203Z,11.50
2022-11-04T11:30:58.528Z,11.60
2022-11-04T11:33:33.407Z,11.70
2022-11-04T11:36:15.349Z,11.70
2022-11-04T11:42:01.461Z,11.70
2022-11-04T11:44:33.721Z,11.90
2022-11-04T11:47:07.264Z,11.90
2022-11-04T11:49:37.745Z,11.90
2022-11-04T11:52:48.458Z,12.00
2022-11-04T11:55:37.637Z,12.00
2022-11-04T12:01:21.941Z,12.00
2022-11-04T12:10:49.041Z,12.10
2022-11-04T12:13:37.154Z,12.20
2022-11-04T12:16:32.958Z,12.40
2022-11-04T12:19:27.403Z,12.50
2022-11-04T12:22:12.847Z,12.50
2022-11-04T12:25:07.740Z,12.50
2022-11-04T12:27:53.529Z,12.50
2022-11-04T12:30:32.337Z,12.40
2022-11-04T12:33:32.979Z,12.30
2022-11-04T12:36:11.881Z,12.30
2022-11-04T12:39:06.184Z,12.20
2022-11-04T12:44:52.535Z,12.20
2022-11-04T12:47:40.782Z,12.20
2022-11-04T12:50:27.266Z,12.20
2022-11-04T12:53:13.657Z,12.10
2022-11-04T12:56:06.918Z,12.00
2022-11-04T12:58:34.820Z,12.00
2022-11-04T13:01:15.129Z,12.00
2022-11-04T13:04:13.437Z,12.00
2022-11-04T13:06:43.890Z,12.00
2022-11-04T13:09:40.501Z,12.00
2022-11-04T13:12:12.487Z,12.00
2022-11-04T13:14:55.477Z,12.00
2022-11-04T13:17:38.657Z,12.00
2022-11-04T13:20:15.501Z,12.00
2022-11-04T13:22:56.675Z,12.00
2022-11-04T13:25:43.859Z,12.00
2022-11-04T13:28:23.284Z,12.00
2022-11-04T13:30:59.782Z,12.00
2022-11-04T13:33:57.081Z,12.00
2022-11-04T13:36:30.917Z,12.00
2022-11-04T13:39:08.166Z,11.90
2022-11-04T13:41:41.679Z,11.80
2022-11-04T13:44:31.541Z,11.90
2022-11-04T13:47:02.648Z,11.90
2022-11-04T13:49:34.966Z,12.00
2022-11-04T13:52:10.208Z,12.10
2022-11-04T13:54:45.786Z,12.00
2022-11-04T13:57:48.937Z,12.00
2022-11-04T14:00:17.232Z,12.00
2022-11-04T14:03:01.354Z,12.00
2022-11-04T14:05:29.911Z,12.00
2022-11-04T14:08:03.312Z,11.90
2022-11-04T14:10:57.679Z,11.90
2022-11-04T14:16:25.878Z,11.90
2022-11-04T14:18:55.318Z,11.90
2022-11-04T14:21:26.698Z,11.90
2022-11-04T14:24:03.388Z,11.90
2022-11-04T14:26:44.666Z,11.90
2022-11-04T14:29:28.328Z,11.90
2022-11-04T14:32:01.592Z,11.80
2022-11-04T14:34:31.469Z,11.80
2022-11-04T14:37:03.305Z,11.70
2022-11-04T14:39:43.468Z,11.70
2022-11-04T14:42:15.952Z,11.70
2022-11-04T14:44:50.090Z,11.70
2022-11-04T14:47:34.140Z,11.70
2022-11-04T14:50:06.578Z,11.60
2022-11-04T14:52:47.383Z,11.60
2022-11-04T14:55:31.260Z,11.70
2022-11-04T14:58:23.742Z,11.60
2022-11-04T15:00:51.650Z,11.60
2022-11-04T15:06:17.393Z,11.40
2022-11-04T15:08:46.753Z,11.40
2022-11-04T15:12:01.372Z,11.30
2022-11-04T15:14:29.334Z,11.30
2022-11-04T15:16:59.868Z,11.20
2022-11-04T15:19:36.093Z,11.20
2022-11-04T15:22:14.152Z,11.20
2022-11-04T15:24:44.466Z,11.20
2022-11-04T15:27:17.755Z,11.20
2022-11-04T15:30:01.392Z,11.20
2022-11-04T15:32:30.136Z,11.20
2022-11-04T15:34:59.145Z,11.10
2022-11-04T15:37:27.718Z,11.10
2022-11-04T15:39:58.820Z,11.10
2022-11-04T15:42:38.081Z,11.10
2022-11-04T15:45:27.213Z,11.00
2022-11-04T15:48:23.250Z,11.00
2022-11-04T15:51:13.179Z,10.90
2022-11-04T15:54:06.104Z,10.80
2022-11-04T15:56:43.197Z,10.70
2022-11-04T15:59:16.661Z,10.70
2022-11-04T16:01:50.260Z,10.70
2022-11-04T16:04:21.235Z,10.70
2022-11-04T16:07:06.237Z,10.70
2022-11-04T16:09:53.336Z,10.70
2022-11-04T16:12:32.329Z,10.70
2022-11-04T16:15:01.107Z,10.60
2022-11-04T16:17:30.573Z,10.60
2022-11-04T16:20:02.659Z,10.60
2022-11-04T16:22:41.619Z,10.60
2022-11-04T16:25:20.184Z,10.40
2022-11-04T16:27:48.256Z,10.40
2022-11-04T16:30:25.407Z,10.40
2022-11-04T16:32:55.480Z,10.40
2022-11-04T16:35:28.548Z,10.40
2022-11-04T16:37:57.317Z,10.40
2022-11-04T16:40:26.176Z,10.40
2022-11-04T16:42:54.674Z,10.30
2022-11-04T16:45:36.193Z,10.30
2022-11-04T16:48:04.231Z,10.30
2022-11-04T16:50:33.672Z,10.20
2022-11-04T16:53:04.398Z,10.10
2022-11-04T16:55:33.702Z,10.00
2022-11-04T16:58:03.868Z,10.00
2022-11-04T17:00:35.560Z,10.00
2022-11-04T17:03:23.186Z,10.00
2022-11-04T17:05:57.382Z,10.00
2022-11-04T17:08:26.509Z,9.80
2022-11-04T17:10:55.253Z,9.70
2022-11-04T17:13:23.255Z,9.60
2022-11-04T17:15:51.565Z,9.60
2022-11-04T17:18:19.993Z,9.50
2022-11-04T17:20:54.070Z,9.50
2022-11-04T17:23:22.788Z,9.40
2022-11-04T17:25:50.870Z,9.40
2022-11-04T17:28:18.828Z,9.40
2022-11-04T17:30:49.794Z,9.40
2022-11-04T17:33:21.501Z,9.40
2022-11-04T17:35:51.178Z,9.40
2022-11-04T17:38:20.069Z,9.50
2022-11-04T17:41:06.405Z,9.40
2022-11-04T17:43:52.893Z,9.40
2022-11-04T17:46:36.039Z,9.40
2022-11-04T17:49:08.891Z,9.40
2022-11-04T17:51:41.164Z,9.40
2022-11-04T17:54:11.048Z,9.40
2022-11-04T17:56:39.311Z,9.40
2022-11-04T17:59:07.856Z,9.40
2022-11-04T18:01:37.287Z,9.40
2022-11-04T18:04:05.733Z,9.50
2022-11-04T18:06:39.400Z,9.50
2022-11-04T18:09:07.919Z,9.50
2022-11-04T18:11:54.477Z,9.50
2022-11-04T18:14:22.456Z,9.50
2022-11-04T18:16:51.483Z,9.50
2022-11-04T18:19:21.285Z,9.50
2022-11-04T18:21:50.804Z,9.50
2022-11-04T18:24:20.329Z,9.50
2022-11-04T18:26:48.954Z,9.50
2022-11-04T18:29:17.503Z,9.50
2022-11-04T18:31:49.346Z,9.50
2022-11-04T18:34:20.290Z,9.50
2022-11-04T18:36:49.448Z,9.50
2022-11-04T18:39:19.265Z,9.40
2022-11-04T18:41:47.544Z,9.20
2022-11-04T18:44:23.590Z,9.10
2022-11-04T18:46:51.624Z,9.10
2022-11-04T18:49:19.591Z,9.10
2022-11-04T18:51:48.101Z,9.20
2022-11-04T18:54:16.590Z,9.20
2022-11-04T18:56:45.042Z,9.20
2022-11-04T18:59:15.691Z,9.20
2022-11-04T19:01:44.760Z,9.20
2022-11-04T19:04:14.130Z,9.20
2022-11-04T19:06:43.967Z,9.20
2022-11-04T19:09:44.745Z,9.10
2022-11-04T19:12:20.849Z,9.10
2022-11-04T19:14:48.817Z,9.00
2022-11-04T19:17:16.798Z,9.00
2022-11-04T19:19:44.782Z,9.00
2022-11-04T19:22:12.991Z,9.00
2022-11-04T19:24:43.972Z,9.00
2022-11-04T19:27:11.874Z,9.00
2022-11-04T19:29:41.680Z,9.00
2022-11-04T19:32:14.469Z,8.90
2022-11-04T19:34:43.743Z,8.90
2022-11-04T19:37:12.501Z,8.80
2022-11-04T19:39:40.889Z,8.90
2022-11-04T19:42:27.601Z,8.90
2022-11-04T19:44:55.538Z,8.90
2022-11-04T19:47:24.136Z,8.80
2022-11-04T19:49:52.040Z,8.80
2022-11-04T19:52:20.486Z,8.80
2022-11-04T19:54:48.349Z,8.80
2022-11-04T19:57:16.479Z,8.80
2022-11-04T19:59:44.422Z,8.90
2022-11-04T20:02:16.242Z,8.90
2022-11-04T20:04:44.416Z,9.00
2022-11-04T20:07:12.274Z,9.00
2022-11-04T20:09:40.960Z,9.00
2022-11-04T20:12:29.888Z,8.90
2022-11-04T20:14:58.327Z,9.00
2022-11-04T20:17:27.049Z,9.00
2022-11-04T20:19:57.181Z,8.90
2022-11-04T20:22:25.222Z,8.90
2022-11-04T20:24:53.105Z,8.90
2022-11-04T20:27:21.460Z,8.90
2022-11-04T20:29:49.311Z,8.90
2022-11-04T20:32:17.222Z,8.80
2022-11-04T20:34:45.189Z,8.80
2022-11-04T20:37:13.642Z,8.90
2022-11-04T20:39:42.042Z,9.00
2022-11-04T20:42:10.038Z,9.00
2022-11-04T20:44:37.956Z,9.00
2022-11-04T20:47:08.868Z,9.00
2022-11-04T20:49:36.787Z,9.10
2022-11-04T20:52:04.912Z,9.10
2022-11-04T20:54:32.927Z,9.10
2022-11-04T20:57:00.806Z,9.10
2022-11-04T20:59:28.882Z,9.10
2022-11-04T21:01:56.902Z,9.20
2022-11-04T21:04:33.248Z,9.20
2022-11-04T21:07:03.993Z,9.30
2022-11-04T21:09:31.892Z,9.30
2022-11-04T21:11:59.954Z,9.30
2022-11-04T21:14:27.876Z,9.30
2022-11-04T21:16:55.797Z,9.30
2022-11-04T21:19:26.232Z,9.30
2022-11-04T21:21:54.755Z,9.30
2022-11-04T21:24:22.651Z,9.30
2022-11-04T21:26:51.317Z,9.30
2022-11-04T21:29:21.318Z,9.20
2022-11-04T21:31:50.227Z,9.10
2022-11-04T21:34:18.190Z,9.10
2022-11-04T21:36:46.736Z,9.10
2022-11-04T21:39:14.656Z,9.10
2022-11-04T21:41:42.806Z,9.10
2022-11-04T21:44:13.381Z,9.10
2022-11-04T21:46:41.424Z,9.10
2022-11-04T21:49:12.053Z,9.20
2022-11-04T21:51:40.098Z,9.20
2022-11-04T21:54:08.389Z,9.20
2022-11-04T21:56:39.018Z,9.20
2022-11-04T21:59:07.694Z,9.20
2022-11-04T22:01:38.539Z,9.10
2022-11-04T22:04:09.972Z,9.10
2022-11-04T22:06:37.965Z,9.10
2022-11-04T22:09:07.855Z,9.10
2022-11-04T22:11:40.545Z,9.10
2022-11-04T22:14:09.628Z,9.10
2022-11-04T22:16:41.049Z,9.10
2022-11-04T22:19:09.893Z,9.10
2022-11-04T22:21:44.447Z,9.10
2022-11-04T22:24:18.026Z,9.10
2022-11-04T22:26:46.213Z,9.00
2022-11-04T22:29:14.311Z,9.00
2022-11-04T22:31:43.754Z,9.00
2022-11-04T22:34:11.738Z,8.90
2022-11-04T22:36:40.715Z,8.90
2022-11-04T22:39:13.410Z,8.90
2022-11-04T22:41:44.822Z,8.90
2022-11-04T22:44:12.699Z,8.90
2022-11-04T22:46:40.561Z,8.80
2022-11-04T22:49:08.667Z,8.80
2022-11-04T22:51:36.526Z,8.90
2022-11-04T22:54:08.148Z,8.80
2022-11-04T22:56:36.713Z,8.70
2022-11-04T22:59:09.514Z,8.70
2022-11-04T23:01:37.856Z,8.80
2022-11-04T23:04:06.434Z,8.80
2022-11-04T23:06:34.403Z,8.80
2022-11-04T23:09:02.269Z,8.80
2022-11-04T23:11:49.882Z,8.80
2022-11-04T23:14:55.285Z,8.80
2022-11-04T23:17:42.713Z,8.80
2022-11-04T23:20:16.163Z,8.80
2022-11-04T23:23:02.513Z,8.70
2022-11-04T23:25:30.493Z,8.70
2022-11-04T23:28:17.066Z,8.50
2022-11-04T23:30:50.937Z,8.50
2022-11-04T23:33:18.849Z,8.40
2022-11-04T23:36:08.914Z,8.40
2022-11-04T23:38:37.077Z,8.40
2022-11-04T23:41:26.298Z,8.40
2022-11-04T23:43:54.183Z,8.30
2022-11-04T23:46:43.463Z,8.30
2022-11-04T23:49:31.334Z,8.40
2022-11-04T23:52:18.038Z,8.50
2022-11-04T23:55:04.575Z,8.50
2022-11-04T23:57:53.879Z,8.50
